createdAt,value
2023-04-16T00:01:53.302Z,24.4
2023-04-16T00:06:55.471Z,24.4
2023-04-16T00:11:57.759Z,24.3
2023-04-16T00:17:00.030Z,24.3
2023-04-16T00:22:02.269Z,24.3
2023-04-16T00:32:12.965Z,24.2
2023-04-16T00:37:15.064Z,24.2
2023-04-16T00:42:17.193Z,24.2
2023-04-16T00:47:20.107Z,24.1
2023-04-16T00:52:22.172Z,24.1
2023-04-16T00:57:25.893Z,24.1
2023-04-16T01:02:28.100Z,24
2023-04-16T01:07:30.157Z,24
2023-04-16T01:12:35.494Z,23.9
2023-04-16T01:17:38.437Z,23.9
2023-04-16T01:22:40.490Z,23.9
2023-04-16T01:27:47.366Z,23.8
2023-04-16T01:32:54.386Z,23.8
2023-04-16T01:37:56.463Z,23.8
2023-04-16T01:43:00.135Z,23.7
2023-04-16T01:48:03.135Z,23.7
2023-04-16T01:53:06.130Z,23.7
2023-04-16T01:58:09.148Z,23.7
2023-04-16T02:03:16.008Z,23.6
2023-04-16T02:08:19.612Z,23.6
2023-04-16T02:13:24.976Z,23.5
2023-04-16T02:18:28.673Z,23.5
2023-04-16T02:23:30.782Z,23.5
2023-04-16T02:28:33.651Z,23.5
2023-04-16T02:33:35.799Z,23.5
2023-04-16T02:38:38.023Z,23.5
2023-04-16T02:43:43.446Z,23.5
2023-04-16T02:48:45.662Z,23.4
2023-04-16T02:53:49.350Z,23.4
2023-04-16T02:58:51.594Z,23.3
2023-04-16T03:03:54.018Z,23.3
2023-04-16T03:08:57.596Z,23.3
2023-04-16T03:14:00.595Z,23.3
2023-04-16T03:19:02.845Z,23.3
2023-04-16T03:24:06.478Z,23.3
2023-04-16T03:29:11.832Z,23.3
2023-04-16T03:34:14.051Z,23.2
2023-04-16T03:39:16.191Z,23.2
2023-04-16T03:44:22.365Z,23.2
2023-04-16T03:49:24.650Z,23.2
2023-04-16T03:54:27.503Z,23.2
2023-04-16T03:59:30.385Z,23.1
2023-04-16T04:04:35.076Z,23.1
2023-04-16T04:09:37.173Z,23.1
2023-04-16T04:14:40.289Z,23.1
2023-04-16T04:19:50.857Z,23.1
2023-04-16T04:29:57.332Z,23
2023-04-16T04:34:59.500Z,23
2023-04-16T04:40:03.112Z,22.9
2023-04-16T04:45:06.141Z,22.9
2023-04-16T04:50:09.070Z,22.9
2023-04-16T04:55:11.264Z,22.9
2023-04-16T05:00:13.508Z,22.9
2023-04-16T05:05:16.558Z,22.9
2023-04-16T05:10:18.780Z,22.9
2023-04-16T05:15:20.894Z,22.9
2023-04-16T05:20:23.041Z,22.9
2023-04-16T05:25:25.147Z,22.9
2023-04-16T05:30:27.526Z,22.8
2023-04-16T05:35:29.786Z,22.8
2023-04-16T05:40:31.896Z,22.8
2023-04-16T05:45:34.043Z,22.8
2023-04-16T05:50:36.180Z,22.8
2023-04-16T05:55:38.281Z,22.7
2023-04-16T06:00:40.409Z,22.5
2023-04-16T06:05:44.259Z,22.3
2023-04-16T06:10:47.200Z,22.1
2023-04-16T06:15:49.496Z,22.1
2023-04-16T06:20:51.790Z,22.1
2023-04-16T06:25:53.916Z,22.3
2023-04-16T06:30:56.174Z,22.6
2023-04-16T06:35:59.084Z,23
2023-04-16T06:41:01.205Z,23.4
2023-04-16T06:46:03.344Z,23.8
2023-04-16T06:51:05.506Z,24.1
2023-04-16T06:56:08.475Z,24.4
2023-04-16T07:01:10.715Z,24.5
2023-04-16T07:06:13.632Z,24.6
2023-04-16T07:11:15.752Z,24.6
2023-04-16T07:16:18.649Z,24.6
2023-04-16T07:21:25.506Z,24.6
2023-04-16T07:26:32.269Z,24.5
2023-04-16T07:31:35.210Z,24.5
2023-04-16T07:36:38.130Z,24.4
2023-04-16T07:41:42.614Z,24.4
2023-04-16T07:46:47.184Z,24.3
2023-04-16T07:51:46.943Z,24.3
2023-04-16T07:56:50.549Z,24.2
2023-04-16T08:01:52.744Z,24.1
2023-04-16T08:06:59.619Z,24.1
2023-04-16T08:12:02.484Z,24
2023-04-16T08:17:04.846Z,24
2023-04-16T08:22:07.774Z,23.9
2023-04-16T08:27:18.257Z,23.8
2023-04-16T08:32:12.762Z,23.8
2023-04-16T08:37:14.928Z,23.7
2023-04-16T08:42:18.545Z,23.6
2023-04-16T08:47:20.710Z,23.6
2023-04-16T08:52:23.590Z,23.6
2023-04-16T08:57:25.809Z,23.5
2023-04-16T09:02:28.087Z,23.5
2023-04-16T09:07:30.098Z,23.5
2023-04-16T09:12:32.344Z,23.5
2023-04-16T09:17:34.634Z,23.5
2023-04-16T09:22:37.580Z,23.5
2023-04-16T09:27:40.438Z,23.5
2023-04-16T09:32:44.110Z,23.5
2023-04-16T09:37:48.620Z,23.5
2023-04-16T09:42:50.743Z,23.5
2023-04-16T09:47:52.982Z,23.4
2023-04-16T09:52:55.969Z,23.5
2023-04-16T09:57:59.749Z,23.5
2023-04-16T10:03:02.924Z,23.5
2023-04-16T10:08:05.074Z,23.5
2023-04-16T10:13:07.171Z,23.6
2023-04-16T10:18:09.382Z,23.6
2023-04-16T10:23:12.240Z,23.6
2023-04-16T10:28:15.137Z,23.6
2023-04-16T10:33:18.034Z,23.6
2023-04-16T10:38:21.859Z,23.6
2023-04-16T10:43:26.370Z,23.6
2023-04-16T10:48:33.097Z,23.6
2023-04-16T10:53:35.445Z,23.6
2023-04-16T10:58:39.076Z,23.5
2023-04-16T11:03:41.297Z,23.5
2023-04-16T11:08:53.705Z,23.5
2023-04-16T11:13:46.569Z,23.5
2023-04-16T11:18:51.238Z,23.5
2023-04-16T11:23:52.463Z,23.5
2023-04-16T11:28:54.671Z,23.5
2023-04-16T11:33:56.931Z,23.5
2023-04-16T11:38:59.809Z,23.5
2023-04-16T11:44:02.684Z,23.5
2023-04-16T11:49:06.327Z,23.5
2023-04-16T11:54:13.119Z,23.4
2023-04-16T11:59:15.530Z,23.1
2023-04-16T12:04:17.583Z,22.8
2023-04-16T12:09:19.635Z,22.6
2023-04-16T12:14:21.875Z,22.6
2023-04-16T12:19:24.868Z,22.6
2023-04-16T12:24:27.129Z,22.8
2023-04-16T12:29:29.258Z,23.1
2023-04-16T12:34:46.735Z,23.4
2023-04-16T12:39:35.034Z,23.7
2023-04-16T12:44:37.252Z,23.9
2023-04-16T12:49:39.486Z,24.1
2023-04-16T12:54:42.407Z,24.1
2023-04-16T12:59:46.020Z,24.1
2023-04-16T13:04:48.199Z,24.1
2023-04-16T13:09:50.289Z,24.1
2023-04-16T13:14:57.062Z,24.1
2023-04-16T13:19:59.321Z,24.1
2023-04-16T13:25:01.616Z,24.1
2023-04-16T13:30:03.728Z,24
2023-04-16T13:35:05.855Z,24
2023-04-16T13:40:07.999Z,23.9
2023-04-16T13:45:10.944Z,23.9
2023-04-16T13:50:13.999Z,23.8
2023-04-16T13:55:16.253Z,23.8
2023-04-16T14:00:21.414Z,23.7
2023-04-16T14:05:25.853Z,23.6
2023-04-16T14:10:26.607Z,23.6
2023-04-16T14:15:33.581Z,23.6
2023-04-16T14:20:35.826Z,23.5
2023-04-16T14:25:38.169Z,23.5
2023-04-16T14:30:40.313Z,23.5
2023-04-16T14:35:42.430Z,23.4
2023-04-16T14:40:44.598Z,23.4
2023-04-16T14:45:47.555Z,23.3
2023-04-16T14:50:50.517Z,23.3
2023-04-16T14:55:53.449Z,23.3
2023-04-16T15:00:55.618Z,23.4
2023-04-16T15:05:57.754Z,23.4
2023-04-16T15:11:04.535Z,23.4
2023-04-16T15:16:07.472Z,23.4
2023-04-16T15:21:11.905Z,23.5
2023-04-16T15:26:12.586Z,23.5
2023-04-16T15:31:15.486Z,23.5
2023-04-16T15:36:17.615Z,23.5
2023-04-16T15:41:19.781Z,23.5
2023-04-16T15:46:21.901Z,23.4
2023-04-16T15:51:24.011Z,23.2
2023-04-16T15:56:26.197Z,23
2023-04-16T16:01:28.348Z,23
2023-04-16T16:06:30.434Z,23
2023-04-16T16:11:33.450Z,23
2023-04-16T16:16:35.775Z,23.3
2023-04-16T16:21:38.607Z,23.6
2023-04-16T16:26:41.533Z,24
2023-04-16T16:31:43.721Z,24.5
2023-04-16T16:36:45.800Z,25
2023-04-16T16:41:48.794Z,25.4
2023-04-16T16:46:51.807Z,25.7
2023-04-16T16:51:57.427Z,26
2023-04-16T16:56:59.588Z,26.1
2023-04-16T17:02:01.796Z,26.2
2023-04-16T17:07:03.942Z,26.2
2023-04-16T17:12:06.136Z,26.1
2023-04-16T17:17:08.213Z,26.1
2023-04-16T17:22:10.338Z,26
2023-04-16T17:27:12.498Z,25.9
2023-04-16T17:32:14.777Z,25.8
2023-04-16T17:37:17.625Z,25.8
2023-04-16T17:42:19.788Z,25.6
2023-04-16T17:47:21.925Z,25.5
2023-04-16T17:52:27.181Z,25.4
2023-04-16T17:57:30.088Z,25.3
2023-04-16T18:02:32.243Z,25.2
2023-04-16T18:12:43.488Z,25
2023-04-16T18:17:45.665Z,24.9
2023-04-16T18:22:47.762Z,24.8
2023-04-16T18:27:51.533Z,24.7
2023-04-16T18:33:17.545Z,24.7
2023-04-16T18:38:00.317Z,24.6
2023-04-16T18:43:03.242Z,24.5
2023-04-16T18:48:05.346Z,24.5
2023-04-16T18:53:07.488Z,24.4
2023-04-16T18:58:09.654Z,24.4
2023-04-16T19:03:11.822Z,24.3
2023-04-16T19:08:13.952Z,24.3
2023-04-16T19:13:16.145Z,24.2
2023-04-16T19:18:18.361Z,24.2
2023-04-16T19:23:20.661Z,24.2
2023-04-16T19:28:22.805Z,24.2
2023-04-16T19:33:25.672Z,24.3
2023-04-16T19:38:27.822Z,24.4
2023-04-16T19:43:31.043Z,24.4
2023-04-16T19:48:32.878Z,24.5
2023-04-16T19:53:35.775Z,24.5
2023-04-16T19:58:38.846Z,24.5
2023-04-16T20:03:41.832Z,24.5
2023-04-16T20:08:44.763Z,24.5
2023-04-16T20:13:46.896Z,24.4
2023-04-16T20:18:49.069Z,24.3
2023-04-16T20:23:51.363Z,24.2
2023-04-16T20:28:53.579Z,24.1
2023-04-16T20:33:56.442Z,24.1
2023-04-16T20:38:58.707Z,24.1
2023-04-16T20:44:02.474Z,24.1
2023-04-16T20:49:04.595Z,24.2
2023-04-16T20:54:07.557Z,24.2
2023-04-16T20:59:09.933Z,24.2
2023-04-16T21:04:12.779Z,24.2
2023-04-16T21:09:15.654Z,24.2
2023-04-16T21:14:22.628Z,24.2
2023-04-16T21:24:34.694Z,24
2023-04-16T21:29:36.872Z,23.9
2023-04-16T21:34:40.483Z,23.9
2023-04-16T21:39:42.737Z,23.8
2023-04-16T21:44:46.437Z,23.8
2023-04-16T21:49:49.277Z,23.8
2023-04-16T21:54:52.175Z,23.8
2023-04-16T21:59:55.260Z,23.8
2023-04-16T22:04:57.459Z,23.8
2023-04-16T22:09:59.832Z,23.7
2023-04-16T22:15:04.435Z,23.7
2023-04-16T22:20:07.481Z,23.7
2023-04-16T22:25:09.661Z,23.7
2023-04-16T22:30:16.479Z,23.6
2023-04-16T22:35:20.243Z,23.6
2023-04-16T22:40:23.134Z,23.5
2023-04-16T22:45:25.434Z,23.5
2023-04-16T22:50:29.172Z,23.4
2023-04-16T22:55:31.345Z,23.4
2023-04-16T23:00:34.264Z,23.4
2023-04-16T23:05:37.951Z,23.4
2023-04-16T23:10:44.804Z,23.3
2023-04-16T23:15:48.530Z,23.3
2023-04-16T23:20:50.611Z,23.2
2023-04-16T23:31:01.796Z,23.1
2023-04-16T23:36:04.622Z,23
2023-04-16T23:41:11.368Z,22.9
2023-04-16T23:46:13.558Z,22.9
2023-04-16T23:51:15.784Z,22.9
2023-04-16T23:56:18.121Z,22.9
